Time;durP1;ratioP1;P1;durP2;ratioP2;P2;SDS_P1;SDS_P2;PMS_P1;PMS_P2;Temp;Humidity;BMP_temperature;BMP_pressure;BME280_temperature;BME280_humidity;BME280_pressure;Samples;Min_cycle;Max_cycle;Signal;HPM_P1;HPM_P2
2023/09/20 00:01:51;;;;;;;6.45;1.63;;;24.00;89.30;;;;;;4824544;29;20421;-83
2023/09/20 00:04:16;;;;;;;5.10;1.35;;;24.00;89.10;;;;;;4816545;29;20108;-86
2023/09/20 00:06:42;;;;;;;4.28;1.58;;;24.00;89.20;;;;;;4822695;29;20468;-86
2023/09/20 00:09:08;;;;;;;3.97;1.75;;;23.90;89.20;;;;;;4823043;29;20073;-87
2023/09/20 00:11:35;;;;;;;3.25;1.42;;;23.90;89.20;;;;;;4824258;29;20050;-87
2023/09/20 00:14:00;;;;;;;3.55;1.63;;;23.90;89.20;;;;;;4818821;29;20768;-86
2023/09/20 00:16:28;;;;;;;2.40;1.45;;;23.90;89.20;;;;;;4823770;29;20109;-86
2023/09/20 00:18:54;;;;;;;2.88;1.50;;;23.90;89.20;;;;;;4809995;29;20043;-86
2023/09/20 00:21:20;;;;;;;4.47;1.70;;;23.90;89.10;;;;;;4807705;29;20083;-86
2023/09/20 00:23:46;;;;;;;4.15;1.50;;;23.90;89.10;;;;;;4824449;29;20034;-87
2023/09/20 00:26:13;;;;;;;5.50;1.30;;;23.90;89.00;;;;;;4821110;29;20026;-86
2023/09/20 00:28:39;;;;;;;4.72;1.90;;;23.90;88.90;;;;;;4811238;29;20043;-86
2023/09/20 00:31:05;;;;;;;1.88;1.27;;;23.90;88.90;;;;;;4822132;29;20086;-86
2023/09/20 00:33:31;;;;;;;5.30;2.05;;;23.90;88.90;;;;;;4819978;29;20035;-86
2023/09/20 00:35:57;;;;;;;2.38;1.30;;;23.90;88.70;;;;;;4813548;29;20034;-86
2023/09/20 00:38:24;;;;;;;2.08;1.30;;;23.80;88.80;;;;;;4820883;29;20117;-85
2023/09/20 00:40:50;;;;;;;3.45;1.20;;;23.80;88.90;;;;;;4819556;29;20094;-86
2023/09/20 00:43:23;;;;;;;2.72;1.10;;;23.80;89.00;;;;;;4821382;29;20507;-88
2023/09/20 00:45:48;;;;;;;1.92;1.35;;;23.80;89.00;;;;;;4824319;29;20062;-87
2023/09/20 00:48:16;;;;;;;2.47;1.10;;;23.70;89.00;;;;;;4823353;29;20087;-83
2023/09/20 00:50:43;;;;;;;3.00;1.60;;;23.70;89.00;;;;;;4824058;29;20514;-87
2023/09/20 00:53:11;;;;;;;3.80;1.30;;;23.70;89.00;;;;;;4813816;29;20545;-85
2023/09/20 00:55:38;;;;;;;3.13;1.50;;;23.70;89.00;;;;;;4810214;29;20054;-84
2023/09/20 00:58:17;;;;;;;2.45;1.30;;;23.60;89.00;;;;;;4822233;29;20039;-83
2023/09/20 01:00:52;;;;;;;2.83;1.60;;;23.60;89.20;;;;;;4823925;29;20038;-85
2023/09/20 01:03:18;;;;;;;2.50;1.40;;;23.60;89.10;;;;;;4823028;29;20035;-84
2023/09/20 01:05:47;;;;;;;2.42;1.15;;;23.60;89.10;;;;;;4827115;29;20038;-84
2023/09/20 01:08:13;;;;;;;2.50;1.15;;;23.60;89.10;;;;;;4825922;29;20035;-85
2023/09/20 01:10:39;;;;;;;4.65;1.30;;;23.60;89.00;;;;;;4826286;29;20043;-84
2023/09/20 01:13:09;;;;;;;3.08;1.10;;;23.60;89.00;;;;;;4822314;29;20038;-85
2023/09/20 01:15:36;;;;;;;2.15;1.42;;;23.60;89.10;;;;;;4810668;29;20046;-85
2023/09/20 01:18:04;;;;;;;5.80;1.30;;;23.50;89.20;;;;;;4825969;29;20046;-84
2023/09/20 01:20:32;;;;;;;3.35;1.23;;;23.50;89.10;;;;;;4826630;29;20066;-84
2023/09/20 01:22:58;;;;;;;3.60;1.15;;;23.60;89.20;;;;;;4826384;29;20041;-85
2023/09/20 01:25:36;;;;;;;4.05;1.63;;;23.60;89.20;;;;;;4825863;29;20026;-84
2023/09/20 01:28:07;;;;;;;2.20;1.33;;;23.60;89.20;;;;;;4822336;29;20038;-85
2023/09/20 01:30:36;;;;;;;1.90;1.23;;;23.50;89.10;;;;;;4823463;29;20560;-85
2023/09/20 01:33:12;;;;;;;5.07;1.42;;;23.50;89.20;;;;;;4826210;29;20037;-84
2023/09/20 01:35:38;;;;;;;1.73;1.02;;;23.50;89.10;;;;;;4821937;29;20069;-85
2023/09/20 01:38:06;;;;;;;3.65;1.30;;;23.50;89.10;;;;;;4807052;29;20070;-87
2023/09/20 01:40:33;;;;;;;2.78;1.48;;;23.40;89.20;;;;;;4826361;29;20499;-87
2023/09/20 01:43:08;;;;;;;2.67;1.25;;;23.40;89.20;;;;;;4827442;29;20427;-84
2023/09/20 01:45:40;;;;;;;6.90;1.40;;;23.40;89.10;;;;;;4801455;29;20058;-85
2023/09/20 01:48:08;;;;;;;1.75;1.20;;;23.40;89.00;;;;;;4825899;29;20044;-85
2023/09/20 01:50:34;;;;;;;5.15;1.40;;;23.40;89.00;;;;;;4824097;29;20034;-84
2023/09/20 01:53:05;;;;;;;2.65;1.50;;;23.40;89.00;;;;;;4814648;29;20047;-84
2023/09/20 01:55:31;;;;;;;;;;;23.40;88.90;;;;;;4824462;29;20039;-85
2023/09/20 01:58:06;;;;;;;1.83;1.00;;;23.40;88.90;;;;;;4797251;29;19917;-87
2023/09/20 02:00:40;;;;;;;3.35;1.70;;;23.30;89.00;;;;;;4800612;29;20057;-86
2023/09/20 02:03:18;;;;;;;4.60;1.40;;;23.30;89.10;;;;;;4814855;29;20113;-86
2023/09/20 02:05:48;;;;;;;3.10;1.30;;;23.30;89.10;;;;;;4818531;29;20062;-87
2023/09/20 02:08:14;;;;;;;3.45;1.50;;;23.30;89.10;;;;;;4824841;29;20086;-85
2023/09/20 02:10:41;;;;;;;2.28;1.33;;;23.30;89.00;;;;;;4811545;29;20046;-84
2023/09/20 02:13:07;;;;;;;3.25;1.10;;;23.30;89.00;;;;;;4821777;29;20038;-82
2023/09/20 02:15:34;;;;;;;3.50;1.63;;;23.20;89.00;;;;;;4823401;29;20121;-83
2023/09/20 02:18:03;;;;;;;4.30;1.48;;;23.30;89.10;;;;;;4808719;29;20039;-83
2023/09/20 02:20:33;;;;;;;3.80;1.40;;;23.20;89.00;;;;;;4815539;29;20345;-84
2023/09/20 02:23:00;;;;;;;5.40;1.20;;;23.30;89.00;;;;;;4820733;29;20061;-83
2023/09/20 02:25:26;;;;;;;5.05;1.20;;;23.30;89.00;;;;;;4821564;29;20117;-83
2023/09/20 02:27:54;;;;;;;5.18;1.65;;;23.20;89.50;;;;;;4812850;29;20027;-82
2023/09/20 02:30:24;;;;;;;2.70;1.48;;;23.20;89.00;;;;;;4825102;29;20026;-84
2023/09/20 02:32:52;;;;;;;2.08;1.13;;;23.20;89.10;;;;;;4825880;29;20042;-84
2023/09/20 02:35:22;;;;;;;2.55;1.38;;;23.20;89.10;;;;;;4824084;29;20038;-86
2023/09/20 02:37:49;;;;;;;2.47;1.50;;;23.20;89.10;;;;;;4825455;29;20030;-86
2023/09/20 02:40:17;;;;;;;2.58;1.35;;;23.20;89.20;;;;;;4826197;29;20035;-86
2023/09/20 02:42:47;;;;;;;3.47;1.35;;;23.10;89.20;;;;;;4825419;29;20022;-86
2023/09/20 02:45:14;;;;;;;3.15;1.20;;;23.10;89.20;;;;;;4825362;29;20483;-87
2023/09/20 02:47:43;;;;;;;6.18;1.40;;;23.10;89.20;;;;;;4825840;29;20030;-86
2023/09/20 02:50:16;;;;;;;3.58;1.33;;;23.20;89.30;;;;;;4826033;29;20457;-86
2023/09/20 02:52:45;;;;;;;2.58;1.55;;;23.10;89.20;;;;;;4825806;29;20373;-86
2023/09/20 02:55:13;;;;;;;2.33;1.02;;;23.10;89.10;;;;;;4808831;29;20091;-86
2023/09/20 02:57:42;;;;;;;3.90;1.50;;;23.10;89.00;;;;;;4811587;29;20037;-86
2023/09/20 03:00:15;;;;;;;6.25;1.55;;;23.10;89.00;;;;;;4825726;29;20145;-86
2023/09/20 03:02:45;;;;;;;3.53;1.30;;;23.10;89.10;;;;;;4825388;29;20030;-86
2023/09/20 03:05:12;;;;;;;;;;;23.10;89.20;;;;;;4825355;29;20038;-86
2023/09/20 03:07:38;;;;;;;3.25;1.30;;;23.10;89.20;;;;;;4825475;29;19913;-86
2023/09/20 03:10:05;;;;;;;7.05;1.48;;;23.10;89.10;;;;;;4825884;29;20026;-88
2023/09/20 03:12:33;;;;;;;3.72;1.60;;;23.00;89.10;;;;;;4824845;29;20040;-86
2023/09/20 03:15:04;;;;;;;2.25;1.50;;;23.00;89.10;;;;;;4824009;29;20049;-83
2023/09/20 03:17:31;;;;;;;3.03;1.20;;;23.00;89.30;;;;;;4824970;29;20030;-83
2023/09/20 03:19:56;;;;;;;2.45;1.17;;;23.00;89.30;;;;;;4825511;29;20042;-83
2023/09/20 03:22:22;;;;;;;4.85;1.85;;;23.00;89.30;;;;;;4825124;29;20030;-84
2023/09/20 03:24:51;;;;;;;3.13;1.50;;;22.90;89.20;;;;;;4824055;29;20495;-87
2023/09/20 03:27:17;;;;;;;4.22;1.10;;;22.90;89.30;;;;;;4823952;29;20030;-87
2023/09/20 03:29:46;;;;;;;2.50;1.23;;;22.90;89.40;;;;;;4825299;29;20041;-85
2023/09/20 03:32:15;;;;;;;2.78;1.45;;;22.90;89.40;;;;;;4825080;29;20399;-85
2023/09/20 03:34:41;;;;;;;3.80;1.83;;;22.80;89.40;;;;;;4824248;29;20444;-85
2023/09/20 03:37:09;;;;;;;3.72;1.58;;;22.80;89.30;;;;;;4824181;29;20038;-86
2023/09/20 03:39:40;;;;;;;3.15;1.13;;;22.80;89.30;;;;;;4824501;29;20104;-84
2023/09/20 03:42:07;;;;;;;7.10;1.52;;;22.80;89.20;;;;;;4824261;29;20078;-84
2023/09/20 03:44:33;;;;;;;2.60;1.30;;;22.80;89.30;;;;;;4824183;29;20038;-84
2023/09/20 03:46:59;;;;;;;3.05;1.50;;;22.80;89.30;;;;;;4807514;29;20037;-84
2023/09/20 03:49:25;;;;;;;4.10;1.42;;;22.90;89.30;;;;;;4824343;29;20041;-84
2023/09/20 03:51:50;;;;;;;2.90;1.05;;;22.90;89.30;;;;;;4823801;29;20042;-83
2023/09/20 03:54:16;;;;;;;4.82;1.77;;;22.90;89.20;;;;;;4823669;29;20031;-84
2023/09/20 03:56:43;;;;;;;2.33;1.40;;;22.90;89.20;;;;;;4824027;29;20416;-84
2023/09/20 03:59:12;;;;;;;4.28;1.40;;;22.90;89.20;;;;;;4824377;29;20455;-84
2023/09/20 04:01:38;;;;;;;3.95;1.35;;;22.90;89.10;;;;;;4823953;29;20026;-85
2023/09/20 04:04:05;;;;;;;3.33;1.42;;;22.90;89.00;;;;;;4823677;29;20109;-87
2023/09/20 04:06:34;;;;;;;1.88;1.23;;;22.90;89.10;;;;;;4823896;29;20033;-87
2023/09/20 04:09:09;;;;;;;1.70;1.17;;;22.90;89.00;;;;;;4824429;29;20026;-86
2023/09/20 04:11:39;;;;;;;4.70;1.10;;;22.80;89.00;;;;;;4823872;29;20039;-86
2023/09/20 04:14:07;;;;;;;3.40;1.23;;;22.80;89.20;;;;;;4823723;29;20032;-87
2023/09/20 04:16:35;;;;;;;2.78;1.13;;;22.80;89.20;;;;;;4807905;29;20447;-86
2023/09/20 04:19:00;;;;;;;2.17;1.30;;;22.80;89.20;;;;;;4824826;29;20155;-86
2023/09/20 04:21:26;;;;;;;4.78;1.60;;;22.80;89.20;;;;;;4824809;29;20065;-86
2023/09/20 04:23:51;;;;;;;1.52;1.00;;;22.80;89.10;;;;;;4823955;29;20037;-87
2023/09/20 04:26:17;;;;;;;4.18;1.30;;;22.70;89.10;;;;;;4824720;29;20061;-86
2023/09/20 04:28:43;;;;;;;3.97;1.27;;;22.70;89.40;;;;;;4824660;29;20031;-81
2023/09/20 04:31:19;;;;;;;8.23;1.80;;;22.60;89.40;;;;;;4823651;29;20508;-83
2023/09/20 04:33:45;;;;;;;2.28;1.20;;;22.60;89.50;;;;;;4820328;29;20038;-83
2023/09/20 04:36:12;;;;;;;5.65;1.58;;;22.60;89.50;;;;;;4820666;29;20038;-79
2023/09/20 04:38:38;;;;;;;2.03;1.27;;;22.70;89.50;;;;;;4826255;29;20081;-78
2023/09/20 04:41:03;;;;;;;2.35;1.20;;;22.70;89.40;;;;;;4826557;29;20487;-78
2023/09/20 04:43:30;;;;;;;3.63;1.25;;;22.60;89.30;;;;;;4824779;29;20038;-78
2023/09/20 04:45:57;;;;;;;6.65;1.65;;;22.60;89.30;;;;;;4827055;29;20448;-78
2023/09/20 04:48:23;;;;;;;6.95;1.45;;;22.60;89.20;;;;;;4827478;29;20078;-79
2023/09/20 04:50:50;;;;;;;3.15;1.25;;;22.50;89.30;;;;;;4824400;29;20066;-81
2023/09/20 04:53:16;;;;;;;2.60;1.15;;;22.50;89.40;;;;;;4825056;29;20046;-81
2023/09/20 04:55:42;;;;;;;5.00;1.27;;;22.50;89.60;;;;;;4826441;29;20030;-81
2023/09/20 04:58:08;;;;;;;2.25;1.08;;;22.50;89.70;;;;;;4827113;29;20034;-80
2023/09/20 05:00:37;;;;;;;5.38;1.10;;;22.50;89.70;;;;;;4823905;29;20035;-80
2023/09/20 05:03:03;;;;;;;4.75;1.23;;;22.50;89.70;;;;;;4823137;29;20440;-80
2023/09/20 05:05:32;;;;;;;4.28;1.38;;;22.50;89.70;;;;;;4823751;29;20058;-79
2023/09/20 05:07:58;;;;;;;7.40;1.70;;;22.50;89.70;;;;;;4825703;29;20054;-81
2023/09/20 05:10:25;;;;;;;3.75;1.80;;;22.40;89.90;;;;;;4808765;29;20727;-78
2023/09/20 05:12:50;;;;;;;2.58;1.20;;;22.40;90.00;;;;;;4824121;29;20030;-77
2023/09/20 05:15:16;;;;;;;3.28;1.20;;;22.30;90.00;;;;;;4822182;29;20488;-78
2023/09/20 05:17:47;;;;;;;1.92;1.23;;;22.30;90.10;;;;;;4824520;29;20047;-78
2023/09/20 05:20:13;;;;;;;9.38;1.58;;;22.30;90.20;;;;;;4819149;29;20030;-78
2023/09/20 05:22:39;;;;;;;3.85;1.30;;;22.30;90.20;;;;;;4816081;29;20027;-78
2023/09/20 05:25:07;;;;;;;4.72;1.40;;;22.30;90.20;;;;;;4813431;29;20031;-78
2023/09/20 05:27:33;;;;;;;2.28;1.20;;;22.30;90.20;;;;;;4816985;29;20472;-77
2023/09/20 05:29:59;;;;;;;2.53;1.52;;;22.40;90.10;;;;;;4820908;29;20581;-86
2023/09/20 05:32:26;;;;;;;3.58;1.30;;;22.40;90.10;;;;;;4825907;29;20030;-86
2023/09/20 05:34:52;;;;;;;3.92;1.73;;;22.40;90.10;;;;;;4826787;29;20042;-85
2023/09/20 05:37:17;;;;;;;4.70;1.90;;;22.50;90.10;;;;;;4825468;29;20448;-87
2023/09/20 05:39:48;;;;;;;1.65;1.00;;;22.40;90.00;;;;;;4823103;29;20033;-87
2023/09/20 05:42:17;;;;;;;3.40;1.52;;;22.50;90.10;;;;;;4810548;29;20083;-87
2023/09/20 05:44:43;;;;;;;2.83;1.17;;;22.50;90.00;;;;;;4825914;29;20075;-87
2023/09/20 05:47:09;;;;;;;7.03;1.58;;;22.50;89.90;;;;;;4817256;29;20109;-87
2023/09/20 05:49:36;;;;;;;2.22;1.23;;;22.50;89.60;;;;;;4824202;29;20042;-87
2023/09/20 05:52:05;;;;;;;5.68;1.60;;;22.60;89.70;;;;;;4824854;29;20058;-87
2023/09/20 05:54:32;;;;;;;1.95;1.33;;;22.60;89.70;;;;;;4819720;29;20083;-86
2023/09/20 05:56:59;;;;;;;1.85;1.20;;;22.60;89.50;;;;;;4825635;29;20030;-78
2023/09/20 05:59:26;;;;;;;4.80;1.20;;;22.70;89.70;;;;;;4816038;29;20038;-77
2023/09/20 06:01:52;;;;;;;4.68;1.45;;;22.70;89.40;;;;;;4825763;29;20046;-86
2023/09/20 06:04:19;;;;;;;2.80;1.35;;;22.80;89.10;;;;;;4826279;29;20031;-86
2023/09/20 06:06:44;;;;;;;5.65;1.40;;;22.90;88.90;;;;;;4826987;29;20037;-86
2023/09/20 06:09:10;;;;;;;3.47;1.20;;;22.90;88.60;;;;;;4826830;29;20034;-87
2023/09/20 06:11:37;;;;;;;4.30;1.48;;;22.90;88.70;;;;;;4810262;29;20031;-84
2023/09/20 06:14:04;;;;;;;6.05;1.27;;;23.00;88.60;;;;;;4818218;29;20039;-86
2023/09/20 06:16:30;;;;;;;3.70;1.42;;;23.00;88.30;;;;;;4824731;29;20034;-86
2023/09/20 06:18:56;;;;;;;4.75;1.45;;;23.00;88.80;;;;;;4827312;29;20091;-86
2023/09/20 06:21:23;;;;;;;4.35;1.20;;;23.10;88.20;;;;;;4826118;29;20067;-86
2023/09/20 06:23:49;;;;;;;4.22;1.00;;;23.20;88.10;;;;;;4826840;29;20494;-87
2023/09/20 06:26:15;;;;;;;2.67;1.10;;;23.20;87.90;;;;;;4809662;29;20031;-85
2023/09/20 06:28:44;;;;;;;3.00;1.40;;;23.20;88.00;;;;;;4809958;29;20026;-85
2023/09/20 06:31:13;;;;;;;11.10;1.70;;;23.20;88.00;;;;;;4806259;29;20026;-85
2023/09/20 06:33:40;;;;;;;2.67;1.00;;;23.20;88.00;;;;;;4818003;29;20053;-85
2023/09/20 06:36:06;;;;;;;4.93;1.30;;;23.20;88.00;;;;;;4818356;29;20125;-86
2023/09/20 06:38:34;;;;;;;2.33;1.20;;;23.30;88.10;;;;;;4807812;29;20464;-86
2023/09/20 06:41:00;;;;;;;5.45;1.30;;;23.30;88.10;;;;;;4825452;29;20045;-86
2023/09/20 06:43:27;;;;;;;2.78;1.13;;;23.40;87.90;;;;;;4826072;29;20031;-85
2023/09/20 06:45:56;;;;;;;3.08;1.10;;;23.40;87.70;;;;;;4825470;29;20110;-87
2023/09/20 06:48:22;;;;;;;2.50;1.30;;;23.40;87.80;;;;;;4827401;29;20059;-86
2023/09/20 06:50:52;;;;;;;6.70;1.38;;;23.50;87.60;;;;;;4806008;29;20078;-86
2023/09/20 06:53:18;;;;;;;7.13;1.58;;;23.50;87.60;;;;;;4808154;29;20031;-87
2023/09/20 06:55:47;;;;;;;2.78;1.58;;;23.50;87.30;;;;;;4810871;29;20069;-86
2023/09/20 06:58:13;;;;;;;2.92;1.23;;;23.60;87.50;;;;;;4825573;29;20038;-87
2023/09/20 07:00:40;;;;;;;8.00;1.42;;;23.60;87.50;;;;;;4817533;29;20042;-85
2023/09/20 07:03:05;;;;;;;2.13;1.30;;;23.70;87.70;;;;;;4814565;29;20376;-86
2023/09/20 07:05:31;;;;;;;3.00;1.00;;;23.70;87.80;;;;;;4807707;29;20031;-85
2023/09/20 07:08:01;;;;;;;2.95;1.15;;;23.80;87.70;;;;;;4806380;29;20022;-86
2023/09/20 07:10:31;;;;;;;3.58;1.50;;;23.80;87.60;;;;;;4815146;29;20060;-86
2023/09/20 07:12:57;;;;;;;2.60;1.10;;;23.90;87.70;;;;;;4825371;29;20101;-86
2023/09/20 07:15:28;;;;;;;5.00;1.73;;;23.90;87.50;;;;;;4824946;29;20506;-87
2023/09/20 07:18:00;;;;;;;3.33;1.17;;;24.00;87.50;;;;;;4826118;29;20034;-86
2023/09/20 07:20:28;;;;;;;2.50;1.17;;;24.00;87.30;;;;;;4825791;29;20026;-86
2023/09/20 07:22:54;;;;;;;2.63;1.67;;;24.10;87.60;;;;;;4809287;29;20065;-87
2023/09/20 07:25:27;;;;;;;5.93;1.38;;;24.10;87.90;;;;;;4823239;29;20133;-86
2023/09/20 07:27:55;;;;;;;5.03;1.13;;;24.10;87.70;;;;;;4824852;29;20030;-86
2023/09/20 07:30:23;;;;;;;5.07;1.40;;;24.20;87.70;;;;;;4825065;29;20045;-87
2023/09/20 07:32:50;;;;;;;2.40;1.08;;;24.30;87.70;;;;;;4825911;29;20044;-87
2023/09/20 07:35:52;;;;;;;4.82;1.23;;;24.30;87.70;;;;;;4825518;29;20069;-85
2023/09/20 07:38:42;;;;;;;6.68;1.77;;;24.40;87.90;;;;;;4821147;29;20065;-78
2023/09/20 07:41:13;;;;;;;5.07;1.63;;;24.50;88.00;;;;;;4806925;29;20074;-78
2023/09/20 07:43:41;;;;;;;3.22;1.50;;;24.60;88.00;;;;;;4819145;29;20030;-77
2023/09/20 07:46:07;;;;;;;9.02;2.15;;;24.70;88.00;;;;;;4822202;29;20079;-77
2023/09/20 07:48:47;;;;;;;4.35;1.20;;;24.70;87.80;;;;;;4824405;29;20042;-77
2023/09/20 07:51:19;;;;;;;1.60;1.00;;;24.70;87.70;;;;;;4824546;29;20052;-78
2023/09/20 07:53:49;;;;;;;2.72;1.13;;;24.80;87.70;;;;;;4824363;29;20039;-78
2023/09/20 07:56:15;;;;;;;2.47;1.10;;;24.80;87.80;;;;;;4823848;29;20508;-78
2023/09/20 07:58:41;;;;;;;2.67;1.27;;;24.80;87.80;;;;;;4791147;29;20031;-77
2023/09/20 08:01:18;;;;;;;4.65;1.35;;;24.80;88.00;;;;;;4814247;29;20060;-77
2023/09/20 08:03:50;;;;;;;2.85;1.10;;;24.80;88.20;;;;;;4824422;29;20090;-77
2023/09/20 08:06:17;;;;;;;3.65;1.27;;;24.90;88.40;;;;;;4823508;29;20101;-77
2023/09/20 08:08:43;;;;;;;2.67;1.40;;;24.90;88.40;;;;;;4824460;29;20087;-77
2023/09/20 08:11:09;;;;;;;3.08;1.13;;;25.00;88.40;;;;;;4819844;29;20034;-78
2023/09/20 08:13:34;;;;;;;5.22;1.80;;;25.10;88.30;;;;;;4822071;29;20046;-76
2023/09/20 08:16:02;;;;;;;7.75;1.23;;;25.10;88.30;;;;;;4815503;29;20114;-78
2023/09/20 08:21:12;;;;;;;5.07;1.25;;;25.30;88.30;;;;;;4831283;29;20108;-78
2023/09/20 09:02:16;;;;;;;4.43;1.73;;;26.40;88.40;;;;;;4814765;29;20034;-87
2023/09/20 09:04:47;;;;;;;6.22;1.48;;;26.50;88.30;;;;;;4818902;29;20114;-86
2023/09/20 09:07:14;;;;;;;7.05;1.77;;;26.60;87.90;;;;;;4814720;29;20064;-85
2023/09/20 09:09:40;;;;;;;3.50;1.42;;;26.60;87.60;;;;;;4822656;29;20464;-78
2023/09/20 09:12:07;;;;;;;5.30;1.75;;;26.70;87.40;;;;;;4822154;29;20023;-78
2023/09/20 09:14:36;;;;;;;11.18;2.78;;;26.80;87.40;;;;;;4817686;29;20105;-78
2023/09/20 09:17:07;;;;;;;3.70;1.45;;;26.90;87.10;;;;;;4820440;29;20034;-78
2023/09/20 09:19:33;;;;;;;6.95;1.50;;;27.00;87.40;;;;;;4818766;29;20046;-78
2023/09/20 09:22:00;;;;;;;4.22;1.77;;;27.00;87.50;;;;;;4823245;29;20027;-78
2023/09/20 09:24:29;;;;;;;4.53;1.75;;;27.10;87.40;;;;;;4811856;29;20034;-78
2023/09/20 09:27:06;;;;;;;8.15;2.38;;;27.20;87.10;;;;;;4822049;29;20023;-78
2023/09/20 09:29:32;;;;;;;4.97;1.60;;;27.30;87.50;;;;;;4821603;29;20042;-78
2023/09/20 09:32:01;;;;;;;4.40;1.55;;;27.40;87.60;;;;;;4820139;29;20053;-78
2023/09/20 09:34:26;;;;;;;7.05;2.45;;;27.50;87.10;;;;;;4809214;29;20035;-78
2023/09/20 09:36:55;;;;;;;4.43;2.45;;;27.40;86.70;;;;;;4806220;29;20061;-78
2023/09/20 09:39:21;;;;;;;9.30;2.35;;;27.30;86.70;;;;;;4826555;29;20429;-79
2023/09/20 09:41:47;;;;;;;6.68;1.88;;;27.30;87.10;;;;;;4826311;29;20031;-78
2023/09/20 09:44:16;;;;;;;4.40;1.40;;;27.30;87.50;;;;;;4825017;29;20083;-79
2023/09/20 09:46:43;;;;;;;5.57;2.22;;;27.50;87.50;;;;;;4809992;29;20031;-79
2023/09/20 09:49:11;;;;;;;6.85;2.05;;;27.60;87.40;;;;;;4824858;29;20034;-78
2023/09/20 09:51:52;;;;;;;6.18;1.70;;;27.80;87.30;;;;;;4824732;29;20404;-78
2023/09/20 09:54:20;;;;;;;5.43;1.98;;;27.90;86.80;;;;;;4825529;29;20049;-79
2023/09/20 09:56:46;;;;;;;13.48;2.25;;;28.00;86.80;;;;;;4825655;29;20030;-79
2023/09/20 09:59:12;;;;;;;5.93;1.80;;;28.10;86.60;;;;;;4825699;29;20034;-79
2023/09/20 10:01:40;;;;;;;5.63;2.63;;;28.00;85.90;;;;;;4826362;29;20042;-78
2023/09/20 10:04:10;;;;;;;6.85;1.85;;;28.00;86.20;;;;;;4825247;29;20027;-78
2023/09/20 10:07:09;;;;;;;9.27;2.40;;;28.00;86.40;;;;;;4825803;29;20030;-78
2023/09/20 10:09:39;;;;;;;8.90;2.20;;;28.00;86.50;;;;;;4815507;29;20045;-78
2023/09/20 10:12:07;;;;;;;8.23;2.03;;;28.00;86.80;;;;;;4825477;29;20027;-78
2023/09/20 10:14:36;;;;;;;5.75;1.88;;;28.10;86.80;;;;;;4825719;29;20034;-79
2023/09/20 10:17:08;;;;;;;7.50;2.58;;;28.20;86.50;;;;;;4825822;29;20138;-79
2023/09/20 10:19:39;;;;;;;5.18;2.13;;;28.20;86.00;;;;;;4825419;29;20034;-79
2023/09/20 10:22:09;;;;;;;9.40;2.20;;;28.20;86.30;;;;;;4825337;29;20051;-79
2023/09/20 10:24:50;;;;;;;5.35;2.10;;;28.10;86.40;;;;;;4821269;29;20027;-79
2023/09/20 10:27:36;;;;;;;6.28;2.10;;;28.30;86.80;;;;;;4825694;29;20033;-79
2023/09/20 10:30:09;;;;;;;4.20;1.92;;;28.40;86.20;;;;;;4823929;29;20062;-79
2023/09/20 10:32:44;;;;;;;6.47;2.10;;;28.50;85.40;;;;;;4816788;29;20048;-80
2023/09/20 10:35:35;;;;;;;6.45;2.10;;;28.60;85.60;;;;;;4814667;29;20074;-88
2023/09/20 10:38:17;;;;;;;5.50;1.95;;;28.70;85.70;;;;;;4822263;29;20030;-80
2023/09/20 10:40:47;;;;;;;7.55;2.40;;;28.80;85.30;;;;;;4826070;29;20026;-79
2023/09/20 10:43:25;;;;;;;5.67;2.57;;;28.80;85.00;;;;;;4825698;29;20026;-79
2023/09/20 10:45:53;;;;;;;5.28;2.00;;;28.70;84.40;;;;;;4825502;29;20044;-79
2023/09/20 10:48:23;;;;;;;4.97;1.75;;;28.60;84.60;;;;;;4823274;29;20049;-78
2023/09/20 10:50:50;;;;;;;10.15;2.00;;;28.50;84.60;;;;;;4822192;29;20133;-90
2023/09/20 10:53:19;;;;;;;9.15;2.05;;;28.40;85.10;;;;;;4812292;29;20086;-79
2023/09/20 10:55:46;;;;;;;4.00;1.73;;;28.30;85.60;;;;;;4808034;29;20030;-78
2023/09/20 10:58:15;;;;;;;5.95;1.70;;;28.30;85.80;;;;;;4816870;29;20271;-79
2023/09/20 11:00:41;;;;;;;6.67;2.20;;;28.30;85.90;;;;;;4816466;29;20042;-79
2023/09/20 11:03:11;;;;;;;7.88;2.00;;;28.30;85.90;;;;;;4810014;29;20026;-89
2023/09/20 11:05:38;;;;;;;4.32;1.85;;;28.30;86.00;;;;;;4821829;29;20045;-90
2023/09/20 11:08:08;;;;;;;5.72;2.28;;;28.20;85.80;;;;;;4825048;29;20064;-90
2023/09/20 11:10:34;;;;;;;4.80;2.17;;;28.20;86.00;;;;;;4824818;29;20479;-88
2023/09/20 11:13:05;;;;;;;4.97;2.13;;;28.20;86.00;;;;;;4824785;29;20062;-89
2023/09/20 11:15:41;;;;;;;9.25;2.30;;;28.10;86.10;;;;;;4826452;29;20034;-87
2023/09/20 11:18:14;;;;;;;8.38;2.15;;;28.10;86.50;;;;;;4825603;29;20030;-87
2023/09/20 11:20:42;;;;;;;7.70;2.33;;;28.10;86.80;;;;;;4808640;29;20058;-78
2023/09/20 11:23:09;;;;;;;7.45;2.38;;;28.10;86.80;;;;;;4824643;29;20027;-78
2023/09/20 11:25:36;;;;;;;10.73;2.38;;;28.00;86.40;;;;;;4823602;29;20030;-79
2023/09/20 11:28:02;;;;;;;9.02;2.30;;;28.00;86.60;;;;;;4823853;29;20023;-79
2023/09/20 11:30:28;;;;;;;6.70;1.90;;;28.00;86.70;;;;;;4824923;29;20162;-79
2023/09/20 11:32:55;;;;;;;6.10;2.38;;;27.90;86.40;;;;;;4822715;29;20391;-79
2023/09/20 11:35:42;;;;;;;5.88;2.03;;;28.00;86.40;;;;;;4819246;29;20045;-88
2023/09/20 11:38:10;;;;;;;3.80;1.98;;;28.00;86.50;;;;;;4808084;29;20070;-81
2023/09/20 11:40:37;;;;;;;6.50;2.35;;;28.00;86.30;;;;;;4823943;29;20030;-80
2023/09/20 11:43:09;;;;;;;6.07;2.28;;;28.20;86.60;;;;;;4801243;29;20090;-79
2023/09/20 11:45:35;;;;;;;6.53;2.47;;;28.40;86.30;;;;;;4814899;29;20405;-88
2023/09/20 11:48:13;;;;;;;6.80;2.20;;;28.70;85.80;;;;;;4807015;29;20068;-91
2023/09/20 11:50:44;;;;;;;5.07;2.20;;;28.90;84.80;;;;;;4828536;29;20433;-91
2023/09/20 11:53:19;;;;;;;4.53;1.90;;;29.00;84.30;;;;;;4821165;29;20113;-88
2023/09/20 11:55:45;;;;;;;7.50;1.90;;;29.10;84.10;;;;;;4819690;29;20062;-90
2023/09/20 11:58:14;;;;;;;4.60;2.13;;;29.40;83.50;;;;;;4816797;29;20034;-90
2023/09/20 12:00:43;;;;;;;8.23;2.38;;;29.80;82.30;;;;;;4813191;29;20039;-89
2023/09/20 12:03:09;;;;;;;7.50;2.10;;;30.00;82.10;;;;;;4824491;29;20031;-89
2023/09/20 12:05:35;;;;;;;7.30;2.05;;;30.20;81.10;;;;;;4820187;29;20030;-89
2023/09/20 12:08:02;;;;;;;8.23;2.00;;;30.40;80.50;;;;;;4822959;29;20041;-86
2023/09/20 12:10:29;;;;;;;6.45;1.90;;;30.60;79.90;;;;;;4821168;29;20042;-88
2023/09/20 12:12:56;;;;;;;7.43;2.10;;;30.80;79.20;;;;;;4819200;29;20478;-89
2023/09/20 12:15:22;;;;;;;5.95;2.05;;;31.10;79.00;;;;;;4826410;29;20455;-89
2023/09/20 12:17:50;;;;;;;9.32;2.40;;;31.30;78.40;;;;;;4828005;29;20042;-89
2023/09/20 12:20:16;;;;;;;3.00;2.00;;;31.40;76.90;;;;;;4821041;29;20030;-89
2023/09/20 12:22:43;;;;;;;6.85;1.90;;;31.60;77.80;;;;;;4825067;29;20173;-91
2023/09/20 12:25:13;;;;;;;3.30;1.70;;;31.90;78.00;;;;;;4826029;29;20033;-79
2023/09/20 12:27:39;;;;;;;5.15;2.03;;;32.10;77.50;;;;;;4820750;29;20050;-80
2023/09/20 12:30:06;;;;;;;5.68;2.20;;;32.20;76.30;;;;;;4826498;29;20038;-88
2023/09/20 12:32:31;;;;;;;4.00;2.13;;;32.30;75.90;;;;;;4845137;29;20047;-89
2023/09/20 12:34:58;;;;;;;9.45;2.30;;;32.30;76.00;;;;;;4840807;29;20151;-89
2023/09/20 12:37:23;;;;;;;7.43;1.77;;;32.40;75.40;;;;;;4847395;29;20026;-90
2023/09/20 12:39:50;;;;;;;10.35;2.55;;;32.40;75.00;;;;;;4837563;29;20053;-90
2023/09/20 12:42:16;;;;;;;9.95;1.80;;;32.40;74.90;;;;;;4834624;29;20034;-79
2023/09/20 12:44:43;;;;;;;4.85;2.17;;;32.30;74.30;;;;;;4829530;29;20022;-89
2023/09/20 12:47:09;;;;;;;5.45;1.67;;;32.30;73.80;;;;;;4834623;29;20058;-80
2023/09/20 12:49:38;;;;;;;3.53;1.70;;;32.10;73.40;;;;;;4834775;29;20496;-79
2023/09/20 12:52:04;;;;;;;6.13;1.92;;;32.10;73.80;;;;;;4832133;29;20054;-79
2023/09/20 12:54:30;;;;;;;4.47;1.70;;;32.00;74.00;;;;;;4833991;29;20041;-90
2023/09/20 12:56:57;;;;;;;7.38;1.95;;;31.70;73.80;;;;;;4822365;29;20027;-90
2023/09/20 12:59:27;;;;;;;9.85;2.33;;;31.50;73.70;;;;;;4827571;29;20030;-90
2023/09/20 13:02:02;;;;;;;5.28;1.77;;;31.40;74.20;;;;;;4829633;29;20095;-79
2023/09/20 13:04:27;;;;;;;5.07;1.90;;;31.20;74.70;;;;;;4818738;29;20022;-80
2023/09/20 13:06:54;;;;;;;6.00;2.10;;;31.10;75.30;;;;;;4820079;29;20041;-80
2023/09/20 13:09:21;;;;;;;7.22;2.40;;;30.90;75.70;;;;;;4820642;29;20056;-79
2023/09/20 13:11:48;;;;;;;6.93;1.90;;;30.80;76.30;;;;;;4805572;29;20360;-79
2023/09/20 13:14:19;;;;;;;6.80;1.88;;;30.70;76.50;;;;;;4816757;29;20045;-79
2023/09/20 13:16:49;;;;;;;6.57;2.28;;;30.60;76.70;;;;;;4815862;29;20026;-80
2023/09/20 13:19:24;;;;;;;7.88;2.25;;;30.50;76.40;;;;;;4818288;29;20055;-90
2023/09/20 13:21:51;;;;;;;8.30;1.92;;;30.40;76.50;;;;;;4818305;29;20041;-91
2023/09/20 13:24:17;;;;;;;7.13;2.25;;;30.30;76.80;;;;;;4812410;29;20039;-90
2023/09/20 13:26:44;;;;;;;6.05;1.95;;;30.30;76.70;;;;;;4819428;29;20026;-81
2023/09/20 13:29:13;;;;;;;4.80;1.38;;;30.20;76.60;;;;;;4816004;29;20038;-80
2023/09/20 13:31:39;;;;;;;5.27;1.60;;;30.10;76.60;;;;;;4815508;29;20038;-79
2023/09/20 13:34:12;;;;;;;5.60;1.75;;;30.10;76.50;;;;;;4805518;29;20094;-87
2023/09/20 13:36:38;;;;;;;3.45;1.73;;;30.00;76.60;;;;;;4825283;29;20096;-89